sensor_id;sensor_type;location;lat;lon;timestamp;P1;durP1;ratioP1;P2;durP2;ratioP2
80229;SDS011;69540;42.136;24.742;2023-04-24T00:00:08;2.03;;;1.92;;
80229;SDS011;69540;42.136;24.742;2023-04-24T00:02:34;2.22;;;2.10;;
80229;SDS011;69540;42.136;24.742;2023-04-24T00:05:06;2.15;;;2.05;;
80229;SDS011;69540;42.136;24.742;2023-04-24T00:07:32;2.25;;;2.05;;
80229;SDS011;69540;42.136;24.742;2023-04-24T00:09:58;2.10;;;2.00;;
80229;SDS011;69540;42.136;24.742;2023-04-24T00:12:25;2.90;;;2.00;;
80229;SDS011;69540;42.136;24.742;2023-04-24T00:14:52;2.58;;;2.17;;
80229;SDS011;69540;42.136;24.742;2023-04-24T00:17:18;2.10;;;2.00;;
80229;SDS011;69540;42.136;24.742;2023-04-24T00:19:49;2.20;;;2.00;;
80229;SDS011;69540;42.136;24.742;2023-04-24T00:22:26;2.30;;;2.10;;
80229;SDS011;69540;42.136;24.742;2023-04-24T00:24:52;2.30;;;2.15;;
80229;SDS011;69540;42.136;24.742;2023-04-24T00:27:18;1.80;;;1.70;;
80229;SDS011;69540;42.136;24.742;2023-04-24T00:29:44;1.80;;;1.70;;
80229;SDS011;69540;42.136;24.742;2023-04-24T00:32:10;2.42;;;2.22;;
80229;SDS011;69540;42.136;24.742;2023-04-24T00:34:38;2.67;;;2.00;;
80229;SDS011;69540;42.136;24.742;2023-04-24T00:37:04;2.17;;;2.08;;
80229;SDS011;69540;42.136;24.742;2023-04-24T00:39:31;2.30;;;2.05;;
80229;SDS011;69540;42.136;24.742;2023-04-24T00:41:56;2.05;;;1.85;;
80229;SDS011;69540;42.136;24.742;2023-04-24T00:44:22;2.10;;;2.00;;
80229;SDS011;69540;42.136;24.742;2023-04-24T00:46:49;3.03;;;2.00;;
80229;SDS011;69540;42.136;24.742;2023-04-24T00:49:18;2.35;;;2.17;;
80229;SDS011;69540;42.136;24.742;2023-04-24T00:51:44;2.50;;;2.30;;
80229;SDS011;69540;42.136;24.742;2023-04-24T00:54:11;2.10;;;2.00;;
80229;SDS011;69540;42.136;24.742;2023-04-24T00:56:40;2.42;;;2.20;;
80229;SDS011;69540;42.136;24.742;2023-04-24T00:59:06;2.28;;;2.10;;
80229;SDS011;69540;42.136;24.742;2023-04-24T01:01:33;1.98;;;1.88;;
80229;SDS011;69540;42.136;24.742;2023-04-24T01:03:59;2.70;;;2.20;;
80229;SDS011;69540;42.136;24.742;2023-04-24T01:06:27;2.30;;;2.10;;
80229;SDS011;69540;42.136;24.742;2023-04-24T01:08:56;2.60;;;1.90;;
80229;SDS011;69540;42.136;24.742;2023-04-24T01:11:24;2.13;;;2.03;;
80229;SDS011;69540;42.136;24.742;2023-04-24T01:13:50;2.40;;;2.20;;
80229;SDS011;69540;42.136;24.742;2023-04-24T01:16:16;2.05;;;1.95;;
80229;SDS011;69540;42.136;24.742;2023-04-24T01:18:43;2.13;;;2.00;;
80229;SDS011;69540;42.136;24.742;2023-04-24T01:21:09;2.38;;;2.20;;
80229;SDS011;69540;42.136;24.742;2023-04-24T01:23:38;2.03;;;1.92;;
80229;SDS011;69540;42.136;24.742;2023-04-24T01:26:04;2.20;;;2.10;;
80229;SDS011;69540;42.136;24.742;2023-04-24T01:28:30;2.72;;;2.10;;
80229;SDS011;69540;42.136;24.742;2023-04-24T01:30:56;2.17;;;1.98;;
80229;SDS011;69540;42.136;24.742;2023-04-24T01:33:22;2.40;;;2.20;;
80229;SDS011;69540;42.136;24.742;2023-04-24T01:35:48;2.88;;;2.00;;
80229;SDS011;69540;42.136;24.742;2023-04-24T01:38:14;2.10;;;2.00;;
80229;SDS011;69540;42.136;24.742;2023-04-24T01:40:40;2.40;;;2.20;;
80229;SDS011;69540;42.136;24.742;2023-04-24T01:43:05;2.35;;;2.15;;
80229;SDS011;69540;42.136;24.742;2023-04-24T01:45:31;1.88;;;1.77;;
80229;SDS011;69540;42.136;24.742;2023-04-24T01:47:57;2.10;;;2.00;;
80229;SDS011;69540;42.136;24.742;2023-04-24T01:50:24;2.28;;;2.08;;
80229;SDS011;69540;42.136;24.742;2023-04-24T01:52:49;2.33;;;2.13;;
80229;SDS011;69540;42.136;24.742;2023-04-24T01:55:17;2.10;;;2.00;;
80229;SDS011;69540;42.136;24.742;2023-04-24T01:57:43;2.40;;;2.20;;
80229;SDS011;69540;42.136;24.742;2023-04-24T02:00:09;2.63;;;2.40;;
80229;SDS011;69540;42.136;24.742;2023-04-24T02:02:37;2.15;;;2.03;;
80229;SDS011;69540;42.136;24.742;2023-04-24T02:05:05;2.40;;;2.20;;
80229;SDS011;69540;42.136;24.742;2023-04-24T02:07:32;2.47;;;2.28;;
80229;SDS011;69540;42.136;24.742;2023-04-24T02:09:58;2.58;;;2.38;;
80229;SDS011;69540;42.136;24.742;2023-04-24T02:12:23;1.98;;;1.88;;
80229;SDS011;69540;42.136;24.742;2023-04-24T02:14:49;2.70;;;2.50;;
80229;SDS011;69540;42.136;24.742;2023-04-24T02:17:15;2.30;;;2.20;;
80229;SDS011;69540;42.136;24.742;2023-04-24T02:19:41;2.08;;;1.98;;
80229;SDS011;69540;42.136;24.742;2023-04-24T02:22:07;2.40;;;2.20;;
80229;SDS011;69540;42.136;24.742;2023-04-24T02:24:32;2.20;;;2.00;;
80229;SDS011;69540;42.136;24.742;2023-04-24T02:26:58;2.45;;;2.25;;
80229;SDS011;69540;42.136;24.742;2023-04-24T02:29:25;2.28;;;2.08;;
80229;SDS011;69540;42.136;24.742;2023-04-24T02:31:53;1.80;;;1.70;;
80229;SDS011;69540;42.136;24.742;2023-04-24T02:34:19;2.50;;;2.30;;
80229;SDS011;69540;42.136;24.742;2023-04-24T02:36:45;3.58;;;2.33;;
80229;SDS011;69540;42.136;24.742;2023-04-24T02:39:10;2.45;;;2.25;;
80229;SDS011;69540;42.136;24.742;2023-04-24T02:41:36;3.40;;;2.33;;
80229;SDS011;69540;42.136;24.742;2023-04-24T02:44:02;2.42;;;2.22;;
80229;SDS011;69540;42.136;24.742;2023-04-24T02:46:27;2.58;;;2.38;;
80229;SDS011;69540;42.136;24.742;2023-04-24T02:48:53;2.50;;;2.30;;
80229;SDS011;69540;42.136;24.742;2023-04-24T02:51:19;2.67;;;2.30;;
80229;SDS011;69540;42.136;24.742;2023-04-24T02:53:45;2.53;;;2.03;;
80229;SDS011;69540;42.136;24.742;2023-04-24T02:56:10;2.53;;;2.33;;
80229;SDS011;69540;42.136;24.742;2023-04-24T02:58:39;2.35;;;2.15;;
80229;SDS011;69540;42.136;24.742;2023-04-24T03:01:05;2.42;;;2.20;;
80229;SDS011;69540;42.136;24.742;2023-04-24T03:03:31;2.40;;;2.30;;
80229;SDS011;69540;42.136;24.742;2023-04-24T03:05:57;2.53;;;2.33;;
80229;SDS011;69540;42.136;24.742;2023-04-24T03:08:23;2.30;;;2.20;;
80229;SDS011;69540;42.136;24.742;2023-04-24T03:10:49;3.08;;;2.35;;
80229;SDS011;69540;42.136;24.742;2023-04-24T03:13:15;2.40;;;2.30;;
80229;SDS011;69540;42.136;24.742;2023-04-24T03:15:41;2.40;;;2.20;;
80229;SDS011;69540;42.136;24.742;2023-04-24T03:18:07;2.58;;;2.30;;
80229;SDS011;69540;42.136;24.742;2023-04-24T03:20:33;2.50;;;2.30;;
80229;SDS011;69540;42.136;24.742;2023-04-24T03:22:58;2.60;;;2.17;;
80229;SDS011;69540;42.136;24.742;2023-04-24T03:25:24;2.47;;;2.28;;
80229;SDS011;69540;42.136;24.742;2023-04-24T03:27:50;2.35;;;2.25;;
80229;SDS011;69540;42.136;24.742;2023-04-24T03:30:18;2.85;;;2.30;;
80229;SDS011;69540;42.136;24.742;2023-04-24T03:32:44;2.50;;;2.30;;
80229;SDS011;69540;42.136;24.742;2023-04-24T03:35:09;2.70;;;2.50;;
80229;SDS011;69540;42.136;24.742;2023-04-24T03:37:36;2.58;;;2.38;;
80229;SDS011;69540;42.136;24.742;2023-04-24T03:40:01;2.42;;;2.25;;
80229;SDS011;69540;42.136;24.742;2023-04-24T03:42:27;2.45;;;2.35;;
80229;SDS011;69540;42.136;24.742;2023-04-24T03:44:53;2.65;;;2.45;;
80229;SDS011;69540;42.136;24.742;2023-04-24T03:47:21;2.25;;;2.10;;
80229;SDS011;69540;42.136;24.742;2023-04-24T03:49:47;2.47;;;2.28;;
80229;SDS011;69540;42.136;24.742;2023-04-24T03:52:12;2.60;;;2.42;;
80229;SDS011;69540;42.136;24.742;2023-04-24T03:54:38;2.20;;;2.08;;
80229;SDS011;69540;42.136;24.742;2023-04-24T03:57:04;2.50;;;2.30;;
80229;SDS011;69540;42.136;24.742;2023-04-24T03:59:30;2.80;;;2.50;;
80229;SDS011;69540;42.136;24.742;2023-04-24T04:01:56;2.20;;;2.10;;
80229;SDS011;69540;42.136;24.742;2023-04-24T04:04:21;2.45;;;2.25;;
80229;SDS011;69540;42.136;24.742;2023-04-24T04:06:47;7.90;;;3.10;;
80229;SDS011;69540;42.136;24.742;2023-04-24T04:09:14;11.40;;;5.13;;
80229;SDS011;69540;42.136;24.742;2023-04-24T04:11:39;8.35;;;6.00;;
80229;SDS011;69540;42.136;24.742;2023-04-24T04:14:05;8.85;;;6.40;;
80229;SDS011;69540;42.136;24.742;2023-04-24T04:16:31;14.88;;;6.72;;
80229;SDS011;69540;42.136;24.742;2023-04-24T04:18:56;12.02;;;6.60;;
80229;SDS011;69540;42.136;24.742;2023-04-24T04:21:22;12.50;;;7.57;;
80229;SDS011;69540;42.136;24.742;2023-04-24T04:23:52;11.70;;;6.70;;
80229;SDS011;69540;42.136;24.742;2023-04-24T04:26:17;11.45;;;6.28;;
80229;SDS011;69540;42.136;24.742;2023-04-24T04:28:46;14.85;;;6.30;;
80229;SDS011;69540;42.136;24.742;2023-04-24T04:31:15;12.18;;;6.43;;
80229;SDS011;69540;42.136;24.742;2023-04-24T04:33:40;11.85;;;6.38;;
80229;SDS011;69540;42.136;24.742;2023-04-24T04:36:09;10.63;;;6.40;;
80229;SDS011;69540;42.136;24.742;2023-04-24T04:38:34;14.07;;;6.82;;
80229;SDS011;69540;42.136;24.742;2023-04-24T04:41:02;13.95;;;6.82;;
80229;SDS011;69540;42.136;24.742;2023-04-24T04:43:28;11.75;;;6.90;;
80229;SDS011;69540;42.136;24.742;2023-04-24T04:45:53;14.48;;;7.38;;
80229;SDS011;69540;42.136;24.742;2023-04-24T04:48:21;10.93;;;7.10;;
80229;SDS011;69540;42.136;24.742;2023-04-24T04:50:47;11.15;;;7.32;;
80229;SDS011;69540;42.136;24.742;2023-04-24T04:53:12;14.82;;;7.43;;
80229;SDS011;69540;42.136;24.742;2023-04-24T04:55:40;12.02;;;7.03;;
80229;SDS011;69540;42.136;24.742;2023-04-24T04:58:06;10.63;;;7.20;;
80229;SDS011;69540;42.136;24.742;2023-04-24T05:00:32;8.23;;;6.55;;
80229;SDS011;69540;42.136;24.742;2023-04-24T05:03:00;12.82;;;6.90;;
80229;SDS011;69540;42.136;24.742;2023-04-24T05:05:27;11.18;;;7.22;;
80229;SDS011;69540;42.136;24.742;2023-04-24T05:07:53;14.82;;;7.40;;
80229;SDS011;69540;42.136;24.742;2023-04-24T05:10:19;11.15;;;7.40;;
80229;SDS011;69540;42.136;24.742;2023-04-24T05:12:45;13.32;;;8.25;;
80229;SDS011;69540;42.136;24.742;2023-04-24T05:15:10;11.50;;;8.30;;
80229;SDS011;69540;42.136;24.742;2023-04-24T05:17:36;15.48;;;8.00;;
80229;SDS011;69540;42.136;24.742;2023-04-24T05:20:03;12.18;;;7.43;;
80229;SDS011;69540;42.136;24.742;2023-04-24T05:22:32;14.07;;;7.55;;
80229;SDS011;69540;42.136;24.742;2023-04-24T05:24:57;16.13;;;7.65;;
80229;SDS011;69540;42.136;24.742;2023-04-24T05:27:24;12.30;;;7.40;;
80229;SDS011;69540;42.136;24.742;2023-04-24T05:29:50;9.13;;;7.47;;
80229;SDS011;69540;42.136;24.742;2023-04-24T05:32:16;10.82;;;7.13;;
80229;SDS011;69540;42.136;24.742;2023-04-24T05:34:41;11.88;;;7.22;;
80229;SDS011;69540;42.136;24.742;2023-04-24T05:37:07;13.02;;;7.60;;
80229;SDS011;69540;42.136;24.742;2023-04-24T05:39:37;12.35;;;7.70;;
80229;SDS011;69540;42.136;24.742;2023-04-24T05:42:03;11.38;;;7.00;;
80229;SDS011;69540;42.136;24.742;2023-04-24T05:44:29;13.10;;;7.03;;
80229;SDS011;69540;42.136;24.742;2023-04-24T05:46:55;10.82;;;6.97;;
80229;SDS011;69540;42.136;24.742;2023-04-24T05:49:21;11.60;;;7.00;;
80229;SDS011;69540;42.136;24.742;2023-04-24T05:51:47;11.98;;;6.63;;
80229;SDS011;69540;42.136;24.742;2023-04-24T05:54:13;9.70;;;6.43;;
80229;SDS011;69540;42.136;24.742;2023-04-24T05:56:39;16.23;;;6.70;;
80229;SDS011;69540;42.136;24.742;2023-04-24T05:59:05;11.85;;;6.68;;
80229;SDS011;69540;42.136;24.742;2023-04-24T06:01:32;14.90;;;6.50;;
80229;SDS011;69540;42.136;24.742;2023-04-24T06:03:58;15.48;;;6.60;;
80229;SDS011;69540;42.136;24.742;2023-04-24T06:06:23;20.02;;;6.55;;
80229;SDS011;69540;42.136;24.742;2023-04-24T06:08:49;16.33;;;6.15;;
80229;SDS011;69540;42.136;24.742;2023-04-24T06:11:15;14.77;;;6.40;;
80229;SDS011;69540;42.136;24.742;2023-04-24T06:13:41;12.98;;;5.90;;
80229;SDS011;69540;42.136;24.742;2023-04-24T06:16:06;17.17;;;6.10;;
80229;SDS011;69540;42.136;24.742;2023-04-24T06:18:32;8.00;;;5.45;;
80229;SDS011;69540;42.136;24.742;2023-04-24T06:20:58;13.60;;;5.70;;
80229;SDS011;69540;42.136;24.742;2023-04-24T06:23:24;11.07;;;5.30;;
80229;SDS011;69540;42.136;24.742;2023-04-24T06:25:50;8.43;;;4.97;;
80229;SDS011;69540;42.136;24.742;2023-04-24T06:28:16;13.27;;;5.43;;
80229;SDS011;69540;42.136;24.742;2023-04-24T06:30:42;12.30;;;5.18;;
80229;SDS011;69540;42.136;24.742;2023-04-24T06:33:08;11.95;;;5.25;;
80229;SDS011;69540;42.136;24.742;2023-04-24T06:35:34;7.40;;;4.68;;
80229;SDS011;69540;42.136;24.742;2023-04-24T06:38:00;8.13;;;4.65;;
80229;SDS011;69540;42.136;24.742;2023-04-24T06:40:26;9.82;;;5.10;;
80229;SDS011;69540;42.136;24.742;2023-04-24T06:42:52;9.68;;;4.35;;
80229;SDS011;69540;42.136;24.742;2023-04-24T06:45:18;7.80;;;4.70;;
80229;SDS011;69540;42.136;24.742;2023-04-24T06:47:43;10.52;;;4.78;;
80229;SDS011;69540;42.136;24.742;2023-04-24T06:50:09;8.35;;;4.53;;
80229;SDS011;69540;42.136;24.742;2023-04-24T06:52:36;10.95;;;4.88;;
80229;SDS011;69540;42.136;24.742;2023-04-24T06:55:02;9.07;;;4.75;;
80229;SDS011;69540;42.136;24.742;2023-04-24T06:57:29;8.35;;;4.72;;
80229;SDS011;69540;42.136;24.742;2023-04-24T06:59:55;7.20;;;4.20;;
80229;SDS011;69540;42.136;24.742;2023-04-24T07:02:21;7.10;;;4.57;;
80229;SDS011;69540;42.136;24.742;2023-04-24T07:04:47;6.90;;;4.43;;
80229;SDS011;69540;42.136;24.742;2023-04-24T07:07:13;8.30;;;4.40;;
80229;SDS011;69540;42.136;24.742;2023-04-24T07:09:39;6.35;;;4.07;;
80229;SDS011;69540;42.136;24.742;2023-04-24T07:12:07;6.25;;;4.22;;
80229;SDS011;69540;42.136;24.742;2023-04-24T07:14:33;10.95;;;4.75;;
80229;SDS011;69540;42.136;24.742;2023-04-24T07:16:59;6.55;;;4.22;;
80229;SDS011;69540;42.136;24.742;2023-04-24T07:19:26;8.68;;;4.40;;
80229;SDS011;69540;42.136;24.742;2023-04-24T07:21:51;7.18;;;4.82;;
80229;SDS011;69540;42.136;24.742;2023-04-24T07:24:18;6.93;;;4.50;;
80229;SDS011;69540;42.136;24.742;2023-04-24T07:26:44;9.48;;;4.40;;
80229;SDS011;69540;42.136;24.742;2023-04-24T07:29:11;6.50;;;4.00;;
80229;SDS011;69540;42.136;24.742;2023-04-24T07:31:37;7.32;;;4.10;;
80229;SDS011;69540;42.136;24.742;2023-04-24T07:34:03;6.00;;;4.18;;
80229;SDS011;69540;42.136;24.742;2023-04-24T07:36:29;8.60;;;4.03;;
80229;SDS011;69540;42.136;24.742;2023-04-24T07:38:55;9.73;;;4.13;;
80229;SDS011;69540;42.136;24.742;2023-04-24T07:41:23;6.70;;;4.13;;
80229;SDS011;69540;42.136;24.742;2023-04-24T07:43:49;7.13;;;4.18;;
80229;SDS011;69540;42.136;24.742;2023-04-24T07:46:15;9.95;;;4.10;;
80229;SDS011;69540;42.136;24.742;2023-04-24T07:48:41;7.57;;;4.18;;
80229;SDS011;69540;42.136;24.742;2023-04-24T07:51:06;5.65;;;4.03;;
80229;SDS011;69540;42.136;24.742;2023-04-24T07:53:35;5.90;;;3.80;;
80229;SDS011;69540;42.136;24.742;2023-04-24T07:56:00;6.30;;;4.00;;
80229;SDS011;69540;42.136;24.742;2023-04-24T07:58:26;6.57;;;3.88;;
80229;SDS011;69540;42.136;24.742;2023-04-24T08:00:52;5.68;;;3.58;;
80229;SDS011;69540;42.136;24.742;2023-04-24T08:03:17;4.72;;;3.80;;
80229;SDS011;69540;42.136;24.742;2023-04-24T08:05:44;5.45;;;4.00;;
80229;SDS011;69540;42.136;24.742;2023-04-24T08:08:11;5.65;;;4.03;;
80229;SDS011;69540;42.136;24.742;2023-04-24T08:10:36;6.63;;;4.40;;
80229;SDS011;69540;42.136;24.742;2023-04-24T08:13:05;5.43;;;4.05;;
80229;SDS011;69540;42.136;24.742;2023-04-24T08:15:30;4.50;;;3.83;;
80229;SDS011;69540;42.136;24.742;2023-04-24T08:17:56;5.47;;;3.95;;
80229;SDS011;69540;42.136;24.742;2023-04-24T08:20:22;4.93;;;3.70;;
80229;SDS011;69540;42.136;24.742;2023-04-24T08:22:48;4.18;;;3.67;;
80229;SDS011;69540;42.136;24.742;2023-04-24T08:25:14;5.80;;;3.90;;
80229;SDS011;69540;42.136;24.742;2023-04-24T08:27:39;5.38;;;3.42;;
80229;SDS011;69540;42.136;24.742;2023-04-24T08:30:06;4.25;;;3.55;;
80229;SDS011;69540;42.136;24.742;2023-04-24T08:32:32;5.22;;;4.30;;
80229;SDS011;69540;42.136;24.742;2023-04-24T08:34:58;6.35;;;4.18;;
80229;SDS011;69540;42.136;24.742;2023-04-24T08:37:25;4.85;;;3.90;;
80229;SDS011;69540;42.136;24.742;2023-04-24T11:32:54;20.80;;;7.32;;
80229;SDS011;69540;42.136;24.742;2023-04-24T11:35:26;21.08;;;6.90;;
80229;SDS011;69540;42.136;24.742;2023-04-24T11:37:57;19.38;;;6.53;;
80229;SDS011;69540;42.136;24.742;2023-04-24T11:40:28;14.60;;;6.72;;
80229;SDS011;69540;42.136;24.742;2023-04-24T11:42:53;13.15;;;6.80;;
80229;SDS011;69540;42.136;24.742;2023-04-24T11:51:12;14.38;;;5.80;;
80229;SDS011;69540;42.136;24.742;2023-04-24T11:53:39;11.40;;;5.63;;
80229;SDS011;69540;42.136;24.742;2023-04-24T11:56:24;12.27;;;6.20;;
80229;SDS011;69540;42.136;24.742;2023-04-24T11:58:57;9.25;;;5.50;;
80229;SDS011;69540;42.136;24.742;2023-04-24T12:01:23;12.43;;;5.43;;
80229;SDS011;69540;42.136;24.742;2023-04-24T12:03:50;12.68;;;5.30;;
80229;SDS011;69540;42.136;24.742;2023-04-24T12:06:24;12.05;;;5.57;;
80229;SDS011;69540;42.136;24.742;2023-04-24T12:08:50;9.60;;;5.30;;
80229;SDS011;69540;42.136;24.742;2023-04-24T12:11:20;11.45;;;5.75;;
80229;SDS011;69540;42.136;24.742;2023-04-24T12:13:51;10.15;;;4.88;;
80229;SDS011;69540;42.136;24.742;2023-04-24T12:16:34;13.10;;;5.70;;
80229;SDS011;69540;42.136;24.742;2023-04-24T12:19:00;10.95;;;5.70;;
80229;SDS011;69540;42.136;24.742;2023-04-24T12:21:31;9.15;;;5.10;;
80229;SDS011;69540;42.136;24.742;2023-04-24T12:24:12;8.73;;;5.20;;
80229;SDS011;69540;42.136;24.742;2023-04-24T12:26:58;9.68;;;5.18;;
80229;SDS011;69540;42.136;24.742;2023-04-24T12:29:27;10.23;;;4.95;;
80229;SDS011;69540;42.136;24.742;2023-04-24T12:32:16;10.73;;;4.90;;
80229;SDS011;69540;42.136;24.742;2023-04-24T12:34:43;9.40;;;4.57;;
80229;SDS011;69540;42.136;24.742;2023-04-24T12:37:11;8.10;;;4.50;;
80229;SDS011;69540;42.136;24.742;2023-04-24T12:39:37;8.25;;;4.97;;
80229;SDS011;69540;42.136;24.742;2023-04-24T12:42:03;8.80;;;4.93;;
80229;SDS011;69540;42.136;24.742;2023-04-24T12:44:31;9.13;;;4.80;;
80229;SDS011;69540;42.136;24.742;2023-04-24T12:47:05;7.85;;;4.40;;
80229;SDS011;69540;42.136;24.742;2023-04-24T12:49:30;10.03;;;5.23;;
80229;SDS011;69540;42.136;24.742;2023-04-24T12:51:59;8.70;;;4.55;;
80229;SDS011;69540;42.136;24.742;2023-04-24T12:54:25;7.03;;;4.90;;
80229;SDS011;69540;42.136;24.742;2023-04-24T12:56:50;8.18;;;4.32;;
80229;SDS011;69540;42.136;24.742;2023-04-24T12:59:16;7.50;;;4.43;;
80229;SDS011;69540;42.136;24.742;2023-04-24T13:01:41;7.93;;;4.45;;
80229;SDS011;69540;42.136;24.742;2023-04-24T13:04:07;10.02;;;4.53;;
80229;SDS011;69540;42.136;24.742;2023-04-24T13:06:33;7.80;;;4.30;;
80229;SDS011;69540;42.136;24.742;2023-04-24T13:08:58;7.10;;;4.38;;
80229;SDS011;69540;42.136;24.742;2023-04-24T13:11:24;7.00;;;3.95;;
80229;SDS011;69540;42.136;24.742;2023-04-24T13:13:50;5.65;;;4.07;;
80229;SDS011;69540;42.136;24.742;2023-04-24T13:16:16;8.40;;;4.30;;
80229;SDS011;69540;42.136;24.742;2023-04-24T13:18:41;8.23;;;4.32;;
80229;SDS011;69540;42.136;24.742;2023-04-24T13:21:07;7.80;;;3.97;;
80229;SDS011;69540;42.136;24.742;2023-04-24T13:23:33;9.57;;;4.20;;
80229;SDS011;69540;42.136;24.742;2023-04-24T13:25:59;5.10;;;3.72;;
80229;SDS011;69540;42.136;24.742;2023-04-24T13:28:29;6.32;;;4.28;;
80229;SDS011;69540;42.136;24.742;2023-04-24T13:30:58;7.10;;;4.13;;
80229;SDS011;69540;42.136;24.742;2023-04-24T13:33:23;6.90;;;3.90;;
80229;SDS011;69540;42.136;24.742;2023-04-24T13:35:49;7.00;;;4.13;;
80229;SDS011;69540;42.136;24.742;2023-04-24T13:38:15;7.32;;;4.00;;
80229;SDS011;69540;42.136;24.742;2023-04-24T13:40:41;4.28;;;3.65;;
80229;SDS011;69540;42.136;24.742;2023-04-24T13:43:06;9.00;;;4.00;;
80229;SDS011;69540;42.136;24.742;2023-04-24T13:45:35;5.22;;;3.80;;
80229;SDS011;69540;42.136;24.742;2023-04-24T13:48:03;6.93;;;4.00;;
80229;SDS011;69540;42.136;24.742;2023-04-24T13:53:38;9.50;;;3.97;;
80229;SDS011;69540;42.136;24.742;2023-04-24T13:56:04;7.60;;;3.75;;
80229;SDS011;69540;42.136;24.742;2023-04-24T13:58:39;5.85;;;4.13;;
80229;SDS011;69540;42.136;24.742;2023-04-24T14:01:07;7.72;;;4.18;;
80229;SDS011;69540;42.136;24.742;2023-04-24T14:03:33;4.72;;;3.80;;
80229;SDS011;69540;42.136;24.742;2023-04-24T14:05:59;6.75;;;3.78;;
80229;SDS011;69540;42.136;24.742;2023-04-24T14:08:25;4.45;;;3.50;;
80229;SDS011;69540;42.136;24.742;2023-04-24T14:10:55;7.38;;;4.05;;
80229;SDS011;69540;42.136;24.742;2023-04-24T14:13:21;5.75;;;3.90;;
80229;SDS011;69540;42.136;24.742;2023-04-24T14:15:54;7.38;;;4.03;;
80229;SDS011;69540;42.136;24.742;2023-04-24T14:18:23;5.85;;;3.78;;
80229;SDS011;69540;42.136;24.742;2023-04-24T14:20:49;3.97;;;3.58;;
80229;SDS011;69540;42.136;24.742;2023-04-24T14:23:15;7.03;;;3.65;;
80229;SDS011;69540;42.136;24.742;2023-04-24T14:25:41;5.10;;;3.50;;
80229;SDS011;69540;42.136;24.742;2023-04-24T14:28:18;5.00;;;3.60;;
80229;SDS011;69540;42.136;24.742;2023-04-24T14:30:47;6.30;;;3.67;;
80229;SDS011;69540;42.136;24.742;2023-04-24T14:33:18;3.95;;;3.53;;
80229;SDS011;69540;42.136;24.742;2023-04-24T14:35:45;5.80;;;3.88;;
80229;SDS011;69540;42.136;24.742;2023-04-24T14:38:14;6.72;;;3.60;;
80229;SDS011;69540;42.136;24.742;2023-04-24T14:40:48;5.00;;;3.50;;
80229;SDS011;69540;42.136;24.742;2023-04-24T14:43:48;5.38;;;3.40;;
80229;SDS011;69540;42.136;24.742;2023-04-24T14:49:50;7.78;;;3.15;;
80229;SDS011;69540;42.136;24.742;2023-04-24T14:52:16;5.72;;;3.20;;
80229;SDS011;69540;42.136;24.742;2023-04-24T14:55:00;4.15;;;3.50;;
80229;SDS011;69540;42.136;24.742;2023-04-24T14:58:16;4.13;;;3.28;;
80229;SDS011;69540;42.136;24.742;2023-04-24T15:01:12;5.53;;;3.80;;
80229;SDS011;69540;42.136;24.742;2023-04-24T15:03:41;3.97;;;3.00;;
80229;SDS011;69540;42.136;24.742;2023-04-24T15:06:07;3.47;;;2.78;;
80229;SDS011;69540;42.136;24.742;2023-04-24T15:08:41;4.30;;;3.20;;
80229;SDS011;69540;42.136;24.742;2023-04-24T15:11:35;5.72;;;3.53;;
80229;SDS011;69540;42.136;24.742;2023-04-24T15:14:43;14.25;;;3.50;;
80229;SDS011;69540;42.136;24.742;2023-04-24T15:17:08;12.32;;;3.40;;
80229;SDS011;69540;42.136;24.742;2023-04-24T15:19:34;5.30;;;3.40;;
80229;SDS011;69540;42.136;24.742;2023-04-24T15:22:00;11.38;;;3.65;;
80229;SDS011;69540;42.136;24.742;2023-04-24T15:24:25;6.05;;;3.33;;
80229;SDS011;69540;42.136;24.742;2023-04-24T15:26:51;6.80;;;3.35;;
80229;SDS011;69540;42.136;24.742;2023-04-24T15:29:18;7.65;;;3.55;;
80229;SDS011;69540;42.136;24.742;2023-04-24T15:31:43;13.20;;;3.55;;
80229;SDS011;69540;42.136;24.742;2023-04-24T15:34:09;7.13;;;3.17;;
80229;SDS011;69540;42.136;24.742;2023-04-24T15:36:35;8.65;;;3.50;;
80229;SDS011;69540;42.136;24.742;2023-04-24T15:39:01;6.32;;;3.22;;
80229;SDS011;69540;42.136;24.742;2023-04-24T15:41:27;4.10;;;3.58;;
80229;SDS011;69540;42.136;24.742;2023-04-24T15:43:53;6.25;;;3.58;;
80229;SDS011;69540;42.136;24.742;2023-04-24T15:46:19;8.35;;;3.10;;
80229;SDS011;69540;42.136;24.742;2023-04-24T15:48:45;6.10;;;3.22;;
80229;SDS011;69540;42.136;24.742;2023-04-24T15:51:10;4.43;;;3.10;;
80229;SDS011;69540;42.136;24.742;2023-04-24T15:53:36;6.72;;;3.40;;
80229;SDS011;69540;42.136;24.742;2023-04-24T15:56:02;5.70;;;3.50;;
80229;SDS011;69540;42.136;24.742;2023-04-24T15:58:28;6.78;;;3.13;;
80229;SDS011;69540;42.136;24.742;2023-04-24T16:00:53;9.68;;;3.20;;
80229;SDS011;69540;42.136;24.742;2023-04-24T16:03:19;7.85;;;3.25;;
80229;SDS011;69540;42.136;24.742;2023-04-24T16:05:46;6.05;;;3.20;;
80229;SDS011;69540;42.136;24.742;2023-04-24T16:08:11;5.53;;;3.10;;
80229;SDS011;69540;42.136;24.742;2023-04-24T16:10:39;6.88;;;3.45;;
80229;SDS011;69540;42.136;24.742;2023-04-24T16:13:05;6.28;;;3.20;;
80229;SDS011;69540;42.136;24.742;2023-04-24T16:15:32;6.22;;;3.35;;
80229;SDS011;69540;42.136;24.742;2023-04-24T16:18:00;3.65;;;2.90;;
80229;SDS011;69540;42.136;24.742;2023-04-24T16:20:26;5.50;;;3.17;;
80229;SDS011;69540;42.136;24.742;2023-04-24T16:22:52;5.20;;;3.30;;
80229;SDS011;69540;42.136;24.742;2023-04-24T16:25:18;6.20;;;3.13;;
80229;SDS011;69540;42.136;24.742;2023-04-24T16:27:44;3.22;;;2.60;;
80229;SDS011;69540;42.136;24.742;2023-04-24T16:30:11;3.17;;;2.83;;
80229;SDS011;69540;42.136;24.742;2023-04-24T16:33:29;3.65;;;3.05;;
80229;SDS011;69540;42.136;24.742;2023-04-24T16:36:10;3.40;;;3.10;;
80229;SDS011;69540;42.136;24.742;2023-04-24T16:38:37;5.70;;;2.75;;
80229;SDS011;69540;42.136;24.742;2023-04-24T16:41:03;5.43;;;3.25;;
80229;SDS011;69540;42.136;24.742;2023-04-24T16:43:29;3.38;;;3.08;;
80229;SDS011;69540;42.136;24.742;2023-04-24T16:45:55;12.02;;;3.17;;
80229;SDS011;69540;42.136;24.742;2023-04-24T16:48:21;3.13;;;2.80;;
80229;SDS011;69540;42.136;24.742;2023-04-24T16:50:46;4.20;;;2.80;;
80229;SDS011;69540;42.136;24.742;2023-04-24T16:53:12;3.45;;;2.78;;
80229;SDS011;69540;42.136;24.742;2023-04-24T16:55:38;5.28;;;2.95;;
80229;SDS011;69540;42.136;24.742;2023-04-24T16:58:04;4.25;;;2.83;;
80229;SDS011;69540;42.136;24.742;2023-04-24T17:00:30;3.15;;;2.80;;
80229;SDS011;69540;42.136;24.742;2023-04-24T17:02:56;2.70;;;2.50;;
80229;SDS011;69540;42.136;24.742;2023-04-24T17:05:22;3.78;;;3.20;;
80229;SDS011;69540;42.136;24.742;2023-04-24T17:07:51;3.70;;;2.90;;
80229;SDS011;69540;42.136;24.742;2023-04-24T17:10:16;3.47;;;2.90;;
80229;SDS011;69540;42.136;24.742;2023-04-24T17:12:42;5.53;;;2.97;;
80229;SDS011;69540;42.136;24.742;2023-04-24T17:15:08;4.20;;;2.95;;
80229;SDS011;69540;42.136;24.742;2023-04-24T17:17:35;3.00;;;2.80;;
80229;SDS011;69540;42.136;24.742;2023-04-24T17:20:01;6.32;;;3.05;;
80229;SDS011;69540;42.136;24.742;2023-04-24T17:22:27;4.70;;;2.65;;
80229;SDS011;69540;42.136;24.742;2023-04-24T17:24:52;4.18;;;2.90;;
80229;SDS011;69540;42.136;24.742;2023-04-24T17:27:18;3.92;;;2.90;;
80229;SDS011;69540;42.136;24.742;2023-04-24T17:29:44;3.00;;;2.80;;
80229;SDS011;69540;42.136;24.742;2023-04-24T17:32:10;3.00;;;2.80;;
80229;SDS011;69540;42.136;24.742;2023-04-24T17:34:36;4.70;;;3.15;;
80229;SDS011;69540;42.136;24.742;2023-04-24T17:37:02;4.22;;;2.90;;